sensor_id;sensor_type;location;lat;lon;timestamp;pressure;altitude;pressure_sealevel;temperature;humidity
41688;BME280;27371;42.686;23.362;2023-03-13T00:00:01;162360.22;;;0.61;57.34
41688;BME280;27371;42.686;23.362;2023-03-13T00:02:39;162370.81;;;0.65;57.04
41688;BME280;27371;42.686;23.362;2023-03-13T00:05:08;162360.22;;;0.61;57.42
41688;BME280;27371;42.686;23.362;2023-03-13T00:07:34;162430.59;;;0.88;57.36
41688;BME280;27371;42.686;23.362;2023-03-13T00:10:00;162296.50;;;0.37;57.44
41688;BME280;27371;42.686;23.362;2023-03-13T00:12:28;162265.97;;;0.25;57.49
41688;BME280;27371;42.686;23.362;2023-03-13T00:14:55;162405.34;;;0.79;56.99
41688;BME280;27371;42.686;23.362;2023-03-13T00:17:24;162534.19;;;1.28;57.46
41688;BME280;27371;42.686;23.362;2023-03-13T00:19:58;162276.56;;;0.29;56.77
41688;BME280;27371;42.686;23.362;2023-03-13T00:22:23;162344.31;;;0.55;56.56
41688;BME280;27371;42.686;23.362;2023-03-13T00:24:53;162414.63;;;0.82;56.71
41688;BME280;27371;42.686;23.362;2023-03-13T00:27:26;162357.53;;;0.60;56.58
41688;BME280;27371;42.686;23.362;2023-03-13T00:29:55;162539.50;;;1.30;56.33
41688;BME280;27371;42.686;23.362;2023-03-13T00:32:21;162522.19;;;1.24;56.18
41688;BME280;27371;42.686;23.362;2023-03-13T00:34:55;162416.00;;;0.83;56.05
41688;BME280;27371;42.686;23.362;2023-03-13T00:37:21;162337.66;;;0.53;56.25
41688;BME280;27371;42.686;23.362;2023-03-13T00:39:51;162503.63;;;1.17;56.36
41688;BME280;27371;42.686;23.362;2023-03-13T00:42:18;162419.97;;;0.84;56.23
41688;BME280;27371;42.686;23.362;2023-03-13T00:44:44;162382.78;;;0.70;56.18
41688;BME280;27371;42.686;23.362;2023-03-13T00:47:09;162334.97;;;0.52;56.50
41688;BME280;27371;42.686;23.362;2023-03-13T00:49:35;162425.28;;;0.86;57.69
41688;BME280;27371;42.686;23.362;2023-03-13T00:52:02;162402.72;;;0.78;58.07
41688;BME280;27371;42.686;23.362;2023-03-13T00:54:27;162396.06;;;0.75;58.44
41688;BME280;27371;42.686;23.362;2023-03-13T00:56:56;162196.97;;;-0.02;58.31
41688;BME280;27371;42.686;23.362;2023-03-13T00:59:25;162194.31;;;-0.03;58.33
41688;BME280;27371;42.686;23.362;2023-03-13T01:04:26;162418.63;;;0.84;58.37
41688;BME280;27371;42.686;23.362;2023-03-13T01:06:51;162413.31;;;0.82;58.56
41688;BME280;27371;42.686;23.362;2023-03-13T01:09:17;162421.28;;;0.85;58.32
41688;BME280;27371;42.686;23.362;2023-03-13T01:11:43;162413.31;;;0.82;58.04
41688;BME280;27371;42.686;23.362;2023-03-13T01:14:14;162408.00;;;0.80;58.24
41688;BME280;27371;42.686;23.362;2023-03-13T01:16:40;162405.34;;;0.79;58.21
41688;BME280;27371;42.686;23.362;2023-03-13T01:19:15;162422.59;;;0.85;58.54
41688;BME280;27371;42.686;23.362;2023-03-13T01:21:42;162422.59;;;0.85;58.25
41688;BME280;27371;42.686;23.362;2023-03-13T01:24:08;162437.25;;;0.91;58.33
41688;BME280;27371;42.686;23.362;2023-03-13T01:26:34;162438.56;;;0.92;58.11
41688;BME280;27371;42.686;23.362;2023-03-13T01:28:59;162453.19;;;0.97;58.04
41688;BME280;27371;42.686;23.362;2023-03-13T01:31:27;162469.09;;;1.03;57.89
41688;BME280;27371;42.686;23.362;2023-03-13T01:33:55;162486.34;;;1.10;57.93
41688;BME280;27371;42.686;23.362;2023-03-13T01:36:21;162490.34;;;1.11;57.83
41688;BME280;27371;42.686;23.362;2023-03-13T01:38:48;162497.00;;;1.14;57.54
41688;BME280;27371;42.686;23.362;2023-03-13T01:41:14;162499.63;;;1.15;57.42
41688;BME280;27371;42.686;23.362;2023-03-13T01:43:40;162506.28;;;1.18;57.14
41688;BME280;27371;42.686;23.362;2023-03-13T01:46:15;162518.25;;;1.22;57.45
41688;BME280;27371;42.686;23.362;2023-03-13T01:51:34;162503.63;;;1.17;56.95
41688;BME280;27371;42.686;23.362;2023-03-13T01:57:05;162311.09;;;0.42;58.69
41688;BME280;27371;42.686;23.362;2023-03-13T01:59:38;162250.03;;;0.19;60.63
41688;BME280;27371;42.686;23.362;2023-03-13T02:02:06;162204.91;;;0.02;61.60
41688;BME280;27371;42.686;23.362;2023-03-13T02:04:38;162178.34;;;-0.09;62.59
41688;BME280;27371;42.686;23.362;2023-03-13T02:07:10;162134.56;;;-0.26;63.17
41688;BME280;27371;42.686;23.362;2023-03-13T02:09:38;162081.53;;;-0.46;64.03
41688;BME280;27371;42.686;23.362;2023-03-13T02:12:12;162049.66;;;-0.58;64.31
41688;BME280;27371;42.686;23.362;2023-03-13T02:14:41;161978.03;;;-0.86;65.52
41688;BME280;27371;42.686;23.362;2023-03-13T02:17:09;161979.41;;;-0.85;66.38
41688;BME280;27371;42.686;23.362;2023-03-13T02:27:15;161889.22;;;-1.20;69.02
41688;BME280;27371;42.686;23.362;2023-03-13T02:29:41;161858.72;;;-1.32;69.56
41688;BME280;27371;42.686;23.362;2023-03-13T02:32:07;161883.91;;;-1.22;69.67
41688;BME280;27371;42.686;23.362;2023-03-13T02:34:34;161883.91;;;-1.22;70.34
41688;BME280;27371;42.686;23.362;2023-03-13T02:37:03;161886.56;;;-1.21;70.26
41688;BME280;27371;42.686;23.362;2023-03-13T02:39:31;161844.16;;;-1.38;70.74
41688;BME280;27371;42.686;23.362;2023-03-13T02:41:59;161861.38;;;-1.31;71.08
41688;BME280;27371;42.686;23.362;2023-03-13T02:44:26;161864.00;;;-1.30;71.48
41688;BME280;27371;42.686;23.362;2023-03-13T02:46:51;161871.94;;;-1.27;71.40
41688;BME280;27371;42.686;23.362;2023-03-13T02:49:25;161877.25;;;-1.25;71.51
41688;BME280;27371;42.686;23.362;2023-03-13T02:51:53;161909.13;;;-1.13;71.29
41688;BME280;27371;42.686;23.362;2023-03-13T02:54:22;161931.66;;;-1.04;70.83
41688;BME280;27371;42.686;23.362;2023-03-13T02:56:52;161926.34;;;-1.06;71.07
41688;BME280;27371;42.686;23.362;2023-03-13T02:59:19;161958.19;;;-0.94;70.90
41688;BME280;27371;42.686;23.362;2023-03-13T03:01:45;161974.09;;;-0.87;70.61
41688;BME280;27371;42.686;23.362;2023-03-13T03:04:11;161966.13;;;-0.91;70.12
41688;BME280;27371;42.686;23.362;2023-03-13T03:06:37;161971.41;;;-0.88;69.76
41688;BME280;27371;42.686;23.362;2023-03-13T03:09:03;161952.88;;;-0.96;69.48
41688;BME280;27371;42.686;23.362;2023-03-13T03:11:28;161958.19;;;-0.94;69.71
41688;BME280;27371;42.686;23.362;2023-03-13T03:13:53;161955.50;;;-0.95;69.48
41688;BME280;27371;42.686;23.362;2023-03-13T03:16:19;161938.28;;;-1.01;69.49
41688;BME280;27371;42.686;23.362;2023-03-13T03:18:45;161928.97;;;-1.05;69.56
41688;BME280;27371;42.686;23.362;2023-03-13T03:21:11;161910.44;;;-1.12;69.37
41688;BME280;27371;42.686;23.362;2023-03-13T03:23:36;161857.38;;;-1.32;67.67
41688;BME280;27371;42.686;23.362;2023-03-13T03:26:03;161760.63;;;-1.70;68.61
41688;BME280;27371;42.686;23.362;2023-03-13T03:28:29;161723.53;;;-1.84;69.93
41688;BME280;27371;42.686;23.362;2023-03-13T03:30:55;161731.47;;;-1.81;72.66
41688;BME280;27371;42.686;23.362;2023-03-13T03:33:21;161773.88;;;-1.65;73.55
41688;BME280;27371;42.686;23.362;2023-03-13T03:35:48;161800.34;;;-1.54;73.46
41688;BME280;27371;42.686;23.362;2023-03-13T03:38:14;161817.63;;;-1.48;73.82
41688;BME280;27371;42.686;23.362;2023-03-13T03:40:40;161845.47;;;-1.37;73.13
41688;BME280;27371;42.686;23.362;2023-03-13T03:43:05;161856.03;;;-1.33;72.31
41688;BME280;27371;42.686;23.362;2023-03-13T03:45:31;161877.25;;;-1.25;71.82
41688;BME280;27371;42.686;23.362;2023-03-13T03:47:56;161887.91;;;-1.21;71.58
41688;BME280;27371;42.686;23.362;2023-03-13T03:50:27;161903.78;;;-1.15;71.35
41688;BME280;27371;42.686;23.362;2023-03-13T03:52:52;161897.16;;;-1.17;71.11
41688;BME280;27371;42.686;23.362;2023-03-13T03:55:18;161903.78;;;-1.15;71.35
41688;BME280;27371;42.686;23.362;2023-03-13T03:57:43;161898.47;;;-1.17;71.07
41688;BME280;27371;42.686;23.362;2023-03-13T04:00:10;161850.78;;;-1.35;71.25
41688;BME280;27371;42.686;23.362;2023-03-13T04:02:40;161866.69;;;-1.29;71.24
41688;BME280;27371;42.686;23.362;2023-03-13T04:05:05;161871.94;;;-1.27;71.05
41688;BME280;27371;42.686;23.362;2023-03-13T04:07:31;161864.00;;;-1.30;71.37
41688;BME280;27371;42.686;23.362;2023-03-13T04:09:57;161873.31;;;-1.26;71.42
41688;BME280;27371;42.686;23.362;2023-03-13T04:12:22;161858.72;;;-1.32;71.21
41688;BME280;27371;42.686;23.362;2023-03-13T04:14:48;161860.06;;;-1.31;71.69
41688;BME280;27371;42.686;23.362;2023-03-13T04:17:13;161889.22;;;-1.20;71.71
41688;BME280;27371;42.686;23.362;2023-03-13T04:19:39;161898.47;;;-1.17;71.37
41688;BME280;27371;42.686;23.362;2023-03-13T04:22:04;161913.06;;;-1.11;71.40
41688;BME280;27371;42.686;23.362;2023-03-13T04:24:30;161950.19;;;-0.97;70.85
41688;BME280;27371;42.686;23.362;2023-03-13T04:26:55;161968.78;;;-0.90;70.76
41688;BME280;27371;42.686;23.362;2023-03-13T04:29:21;161987.34;;;-0.82;70.59
41688;BME280;27371;42.686;23.362;2023-03-13T04:31:46;161997.94;;;-0.78;70.14
41688;BME280;27371;42.686;23.362;2023-03-13T04:34:12;162001.94;;;-0.77;70.36
41688;BME280;27371;42.686;23.362;2023-03-13T04:36:37;162015.22;;;-0.72;69.84
41688;BME280;27371;42.686;23.362;2023-03-13T04:39:03;162037.75;;;-0.63;70.02
41688;BME280;27371;42.686;23.362;2023-03-13T04:41:28;162043.03;;;-0.61;69.65
41688;BME280;27371;42.686;23.362;2023-03-13T04:43:54;162029.81;;;-0.66;69.44
41688;BME280;27371;42.686;23.362;2023-03-13T04:46:19;162029.81;;;-0.66;69.47
41688;BME280;27371;42.686;23.362;2023-03-13T04:48:45;161968.78;;;-0.90;68.35
41688;BME280;27371;42.686;23.362;2023-03-13T04:51:11;161889.22;;;-1.20;68.49
41688;BME280;27371;42.686;23.362;2023-03-13T04:53:37;161864.00;;;-1.30;69.70
41688;BME280;27371;42.686;23.362;2023-03-13T04:56:03;161882.56;;;-1.23;71.99
41688;BME280;27371;42.686;23.362;2023-03-13T04:58:28;161905.13;;;-1.14;72.34
41688;BME280;27371;42.686;23.362;2023-03-13T05:00:54;161987.34;;;-0.82;75.93
41688;BME280;27371;42.686;23.362;2023-03-13T05:03:21;162039.06;;;-0.62;74.65
41688;BME280;27371;42.686;23.362;2023-03-13T05:05:46;162047.03;;;-0.59;71.95
41688;BME280;27371;42.686;23.362;2023-03-13T05:08:12;162016.53;;;-0.71;71.54
41688;BME280;27371;42.686;23.362;2023-03-13T05:10:37;162072.25;;;-0.50;70.64
41688;BME280;27371;42.686;23.362;2023-03-13T05:13:03;162198.28;;;-0.01;76.46
41688;BME280;27371;42.686;23.362;2023-03-13T05:15:28;162279.22;;;0.30;75.82
41688;BME280;27371;42.686;23.362;2023-03-13T05:17:54;162255.34;;;0.21;74.03
41688;BME280;27371;42.686;23.362;2023-03-13T05:20:19;162256.66;;;0.21;71.49
41688;BME280;27371;42.686;23.362;2023-03-13T05:22:45;162268.63;;;0.26;70.36
41688;BME280;27371;42.686;23.362;2023-03-13T05:25:11;162292.50;;;0.35;68.84
41688;BME280;27371;42.686;23.362;2023-03-13T05:27:36;162323.06;;;0.47;67.92
41688;BME280;27371;42.686;23.362;2023-03-13T05:30:02;162389.44;;;0.73;66.97
41688;BME280;27371;42.686;23.362;2023-03-13T05:32:28;162481.06;;;1.08;65.22
41688;BME280;27371;42.686;23.362;2023-03-13T05:34:53;162548.78;;;1.34;63.88
41688;BME280;27371;42.686;23.362;2023-03-13T05:37:19;162629.81;;;1.65;63.19
41688;BME280;27371;42.686;23.362;2023-03-13T05:39:44;162754.75;;;2.13;62.08
41688;BME280;27371;42.686;23.362;2023-03-13T05:42:09;162869.06;;;2.57;61.16
41688;BME280;27371;42.686;23.362;2023-03-13T05:44:35;162916.94;;;2.76;59.55
41688;BME280;27371;42.686;23.362;2023-03-13T05:47:00;162846.47;;;2.49;58.25
41688;BME280;27371;42.686;23.362;2023-03-13T05:49:26;162855.75;;;2.52;57.95
41688;BME280;27371;42.686;23.362;2023-03-13T05:51:51;162863.72;;;2.55;57.44
41688;BME280;27371;42.686;23.362;2023-03-13T05:54:17;162807.88;;;2.34;57.84
41688;BME280;27371;42.686;23.362;2023-03-13T05:56:43;162830.47;;;2.42;57.85
41688;BME280;27371;42.686;23.362;2023-03-13T05:59:09;162886.31;;;2.64;57.23
41688;BME280;27371;42.686;23.362;2023-03-13T06:01:34;162886.31;;;2.64;57.16
41688;BME280;27371;42.686;23.362;2023-03-13T06:04:00;162882.34;;;2.62;56.89
41688;BME280;27371;42.686;23.362;2023-03-13T06:06:25;162877.03;;;2.60;56.88
41688;BME280;27371;42.686;23.362;2023-03-13T06:08:51;162958.13;;;2.92;56.51
41688;BME280;27371;42.686;23.362;2023-03-13T06:11:17;162939.53;;;2.84;56.27
41688;BME280;27371;42.686;23.362;2023-03-13T06:13:43;162975.44;;;2.98;55.91
41688;BME280;27371;42.686;23.362;2023-03-13T06:16:08;162960.81;;;2.93;55.81
41688;BME280;27371;42.686;23.362;2023-03-13T06:18:35;162908.91;;;2.73;56.49
41688;BME280;27371;42.686;23.362;2023-03-13T06:21:01;162865.06;;;2.56;56.65
41688;BME280;27371;42.686;23.362;2023-03-13T06:23:27;162871.69;;;2.58;56.77
41688;BME280;27371;42.686;23.362;2023-03-13T06:25:53;162885.00;;;2.63;56.62
41688;BME280;27371;42.686;23.362;2023-03-13T06:28:19;162898.31;;;2.68;56.68
41688;BME280;27371;42.686;23.362;2023-03-13T06:30:44;162952.84;;;2.89;56.93
41688;BME280;27371;42.686;23.362;2023-03-13T06:33:10;163003.38;;;3.09;56.15
41688;BME280;27371;42.686;23.362;2023-03-13T06:35:39;162992.72;;;3.05;55.91
41688;BME280;27371;42.686;23.362;2023-03-13T06:38:05;163032.63;;;3.20;54.75
41688;BME280;27371;42.686;23.362;2023-03-13T06:40:32;163051.22;;;3.27;54.46
41688;BME280;27371;42.686;23.362;2023-03-13T06:42:58;163076.50;;;3.37;53.91
41688;BME280;27371;42.686;23.362;2023-03-13T06:45:23;163095.09;;;3.44;53.61
41688;BME280;27371;42.686;23.362;2023-03-13T06:47:49;163095.09;;;3.44;52.84
41688;BME280;27371;42.686;23.362;2023-03-13T06:50:16;163085.81;;;3.41;52.79
41688;BME280;27371;42.686;23.362;2023-03-13T06:52:42;163168.31;;;3.72;53.22
41688;BME280;27371;42.686;23.362;2023-03-13T06:55:08;163248.16;;;4.03;51.77
41688;BME280;27371;42.686;23.362;2023-03-13T06:57:34;163274.72;;;4.13;51.75
41688;BME280;27371;42.686;23.362;2023-03-13T06:59:59;163321.34;;;4.31;51.96
41688;BME280;27371;42.686;23.362;2023-03-13T07:02:25;163353.25;;;4.43;51.92
41688;BME280;27371;42.686;23.362;2023-03-13T07:04:50;163337.28;;;4.37;52.31
41688;BME280;27371;42.686;23.362;2023-03-13T07:07:16;163361.25;;;4.46;52.29
41688;BME280;27371;42.686;23.362;2023-03-13T07:09:41;163306.69;;;4.26;52.01
41688;BME280;27371;42.686;23.362;2023-03-13T07:12:07;163290.72;;;4.19;52.68
41688;BME280;27371;42.686;23.362;2023-03-13T07:14:32;163301.34;;;4.23;52.59
41688;BME280;27371;42.686;23.362;2023-03-13T07:16:58;163296.03;;;4.21;52.59
41688;BME280;27371;42.686;23.362;2023-03-13T07:19:24;163330.63;;;4.35;52.73
41688;BME280;27371;42.686;23.362;2023-03-13T07:21:50;163399.88;;;4.61;52.10
41688;BME280;27371;42.686;23.362;2023-03-13T07:24:17;163446.44;;;4.79;50.60
41688;BME280;27371;42.686;23.362;2023-03-13T07:26:43;163441.16;;;4.77;50.22
41688;BME280;27371;42.686;23.362;2023-03-13T07:29:08;163410.50;;;4.65;49.93
41688;BME280;27371;42.686;23.362;2023-03-13T07:31:34;163407.84;;;4.64;50.57
41688;BME280;27371;42.686;23.362;2023-03-13T07:33:59;163417.16;;;4.68;49.98
41688;BME280;27371;42.686;23.362;2023-03-13T07:36:25;163459.78;;;4.84;49.92
41688;BME280;27371;42.686;23.362;2023-03-13T07:38:51;163479.75;;;4.92;49.29
41688;BME280;27371;42.686;23.362;2023-03-13T07:41:18;163441.16;;;4.77;49.63
41688;BME280;27371;42.686;23.362;2023-03-13T07:43:44;163470.44;;;4.88;49.54
41688;BME280;27371;42.686;23.362;2023-03-13T07:46:12;163505.09;;;5.02;49.31
41688;BME280;27371;42.686;23.362;2023-03-13T07:48:40;163531.69;;;5.12;48.84
41688;BME280;27371;42.686;23.362;2023-03-13T07:51:12;163567.63;;;5.26;48.92
41688;BME280;27371;42.686;23.362;2023-03-13T07:53:37;163614.28;;;5.44;48.48
41688;BME280;27371;42.686;23.362;2023-03-13T07:56:09;163586.31;;;5.33;48.63
41688;BME280;27371;42.686;23.362;2023-03-13T07:58:36;163572.97;;;5.28;48.90
41688;BME280;27371;42.686;23.362;2023-03-13T08:03:43;163568.97;;;5.26;48.32
41688;BME280;27371;42.686;23.362;2023-03-13T08:06:13;163618.25;;;5.45;48.61
41688;BME280;27371;42.686;23.362;2023-03-13T08:08:40;163698.16;;;5.76;48.47
41688;BME280;27371;42.686;23.362;2023-03-13T08:11:14;163718.16;;;5.84;47.85
41688;BME280;27371;42.686;23.362;2023-03-13T08:13:40;163760.84;;;6.00;47.54
41688;BME280;27371;42.686;23.362;2023-03-13T08:16:20;163776.84;;;6.06;47.00
41688;BME280;27371;42.686;23.362;2023-03-13T08:18:49;163846.16;;;6.33;46.65
41688;BME280;27371;42.686;23.362;2023-03-13T08:21:20;163868.81;;;6.41;45.92
41688;BME280;27371;42.686;23.362;2023-03-13T08:23:46;163883.47;;;6.47;45.85
41688;BME280;27371;42.686;23.362;2023-03-13T08:26:18;163930.13;;;6.65;45.39
41688;BME280;27371;42.686;23.362;2023-03-13T08:28:59;163940.78;;;6.69;45.64
41688;BME280;27371;42.686;23.362;2023-03-13T08:31:33;163970.09;;;6.80;44.87
41688;BME280;27371;42.686;23.362;2023-03-13T08:33:59;164043.44;;;7.08;44.11
41688;BME280;27371;42.686;23.362;2023-03-13T08:36:26;164120.78;;;7.38;43.98
41688;BME280;27371;42.686;23.362;2023-03-13T08:38:54;164136.78;;;7.44;43.01
41688;BME280;27371;42.686;23.362;2023-03-13T08:41:22;164122.09;;;7.39;43.00
41688;BME280;27371;42.686;23.362;2023-03-13T08:43:51;164055.44;;;7.13;42.95
41688;BME280;27371;42.686;23.362;2023-03-13T08:46:17;164032.78;;;7.04;43.52
41688;BME280;27371;42.686;23.362;2023-03-13T08:48:43;163956.75;;;6.75;44.03
41688;BME280;27371;42.686;23.362;2023-03-13T08:51:13;163912.78;;;6.58;44.47
41688;BME280;27371;42.686;23.362;2023-03-13T08:53:40;163868.81;;;6.41;44.49
41688;BME280;27371;42.686;23.362;2023-03-13T08:56:08;163939.47;;;6.68;44.78
41688;BME280;27371;42.686;23.362;2023-03-13T08:58:34;163991.44;;;6.88;44.51
41688;BME280;27371;42.686;23.362;2023-03-13T09:01:04;164075.47;;;7.21;44.06
41688;BME280;27371;42.686;23.362;2023-03-13T09:03:30;164080.81;;;7.23;43.45
41688;BME280;27371;42.686;23.362;2023-03-13T09:05:57;164131.47;;;7.42;42.36
41688;BME280;27371;42.686;23.362;2023-03-13T09:08:23;164107.44;;;7.33;41.98
41688;BME280;27371;42.686;23.362;2023-03-13T09:10:57;164115.50;;;7.36;42.00
41688;BME280;27371;42.686;23.362;2023-03-13T09:13:24;164202.19;;;7.69;41.57
41688;BME280;27371;42.686;23.362;2023-03-13T09:15:54;164236.81;;;7.82;41.70
41688;BME280;27371;42.686;23.362;2023-03-13T09:18:20;164235.50;;;7.82;41.64
41688;BME280;27371;42.686;23.362;2023-03-13T09:20:45;164315.53;;;8.13;41.04
41688;BME280;27371;42.686;23.362;2023-03-13T09:23:11;164286.19;;;8.01;41.70
41688;BME280;27371;42.686;23.362;2023-03-13T09:25:37;164295.56;;;8.05;41.85
41688;BME280;27371;42.686;23.362;2023-03-13T09:28:03;164355.59;;;8.28;41.37
41688;BME280;27371;42.686;23.362;2023-03-13T09:30:28;164398.34;;;8.44;40.88
41688;BME280;27371;42.686;23.362;2023-03-13T09:32:54;164430.38;;;8.57;39.69
41688;BME280;27371;42.686;23.362;2023-03-13T09:35:19;164395.66;;;8.43;39.67
41688;BME280;27371;42.686;23.362;2023-03-13T09:37:44;164393.00;;;8.42;40.01
41688;BME280;27371;42.686;23.362;2023-03-13T09:40:14;164431.69;;;8.57;40.29
41688;BME280;27371;42.686;23.362;2023-03-13T09:42:49;164433.06;;;8.58;39.90
41688;BME280;27371;42.686;23.362;2023-03-13T09:45:22;164434.38;;;8.58;39.91
41688;BME280;27371;42.686;23.362;2023-03-13T09:48:05;164470.44;;;8.72;41.94
41688;BME280;27371;42.686;23.362;2023-03-13T09:50:35;164487.75;;;8.79;39.31
41688;BME280;27371;42.686;23.362;2023-03-13T09:53:14;164473.06;;;8.73;39.42
41688;BME280;27371;42.686;23.362;2023-03-13T09:55:42;164450.41;;;8.64;39.48
41688;BME280;27371;42.686;23.362;2023-03-13T09:58:13;164422.38;;;8.54;39.94
41688;BME280;27371;42.686;23.362;2023-03-13T10:00:47;164395.66;;;8.43;39.29
41688;BME280;27371;42.686;23.362;2023-03-13T10:03:17;164398.34;;;8.44;39.45
41688;BME280;27371;42.686;23.362;2023-03-13T10:05:48;164355.59;;;8.28;39.72
41688;BME280;27371;42.686;23.362;2023-03-13T10:08:19;164351.56;;;8.26;39.97
41688;BME280;27371;42.686;23.362;2023-03-13T10:10:54;164360.94;;;8.30;39.88
41688;BME280;27371;42.686;23.362;2023-03-13T10:16:03;164359.56;;;8.30;39.81
41688;BME280;27371;42.686;23.362;2023-03-13T10:18:34;164394.31;;;8.43;40.27
41688;BME280;27371;42.686;23.362;2023-03-13T10:21:12;164376.94;;;8.36;39.88
41688;BME280;27371;42.686;23.362;2023-03-13T10:23:45;164393.00;;;8.42;40.22
41688;BME280;27371;42.686;23.362;2023-03-13T10:26:21;164351.56;;;8.26;40.15
41688;BME280;27371;42.686;23.362;2023-03-13T10:28:50;164304.88;;;8.09;40.47
41688;BME280;27371;42.686;23.362;2023-03-13T10:31:36;164286.19;;;8.01;40.66
41688;BME280;27371;42.686;23.362;2023-03-13T10:34:06;164307.53;;;8.10;40.98
41688;BME280;27371;42.686;23.362;2023-03-13T10:36:42;164295.56;;;8.05;40.93
41688;BME280;27371;42.686;23.362;2023-03-13T10:39:14;164323.53;;;8.16;41.04
41688;BME280;27371;42.686;23.362;2023-03-13T10:41:40;164355.59;;;8.28;40.79
41688;BME280;27371;42.686;23.362;2023-03-13T10:44:17;164308.88;;;8.10;40.18
41688;BME280;27371;42.686;23.362;2023-03-13T10:46:45;164235.50;;;7.82;40.43
41688;BME280;27371;42.686;23.362;2023-03-13T10:49:18;164234.16;;;7.81;41.21
41688;BME280;27371;42.686;23.362;2023-03-13T10:51:52;164232.84;;;7.81;41.01
41688;BME280;27371;42.686;23.362;2023-03-13T10:54:27;164270.19;;;7.95;41.37
41688;BME280;27371;42.686;23.362;2023-03-13T10:59:45;164266.16;;;7.94;40.44
41688;BME280;27371;42.686;23.362;2023-03-13T11:02:34;164200.81;;;7.69;40.90
41688;BME280;27371;42.686;23.362;2023-03-13T11:05:02;164111.47;;;7.34;41.09
41688;BME280;27371;42.686;23.362;2023-03-13T11:07:47;164114.13;;;7.35;42.17
41688;BME280;27371;42.686;23.362;2023-03-13T11:10:21;164102.16;;;7.31;42.74
41688;BME280;27371;42.686;23.362;2023-03-13T11:12:49;164034.09;;;7.05;43.36
41688;BME280;27371;42.686;23.362;2023-03-13T11:18:11;164098.13;;;7.29;43.72
41688;BME280;27371;42.686;23.362;2023-03-13T11:20:42;164120.78;;;7.38;43.28
41688;BME280;27371;42.686;23.362;2023-03-13T11:28:34;164195.50;;;7.67;42.40
41688;BME280;27371;42.686;23.362;2023-03-13T11:31:13;164267.53;;;7.94;42.27
41688;BME280;27371;42.686;23.362;2023-03-13T11:33:52;164312.91;;;8.12;42.65
41688;BME280;27371;42.686;23.362;2023-03-13T11:36:42;164331.59;;;8.19;41.85
41688;BME280;27371;42.686;23.362;2023-03-13T11:47:44;164465.06;;;8.70;40.06
41688;BME280;27371;42.686;23.362;2023-03-13T11:53:00;164418.38;;;8.52;40.10
41688;BME280;27371;42.686;23.362;2023-03-13T12:01:38;164449.06;;;8.64;40.32
41688;BME280;27371;42.686;23.362;2023-03-13T12:07:00;164479.75;;;8.76;39.40
41688;BME280;27371;42.686;23.362;2023-03-13T12:14:34;164318.25;;;8.14;40.22
41688;BME280;27371;42.686;23.362;2023-03-13T12:17:30;164288.91;;;8.02;41.32
41688;BME280;27371;42.686;23.362;2023-03-13T12:20:05;164307.53;;;8.10;40.78
41688;BME280;27371;42.686;23.362;2023-03-13T12:23:15;164340.91;;;8.22;41.08
41688;BME280;27371;42.686;23.362;2023-03-13T12:32:11;164505.16;;;8.85;39.47
41688;BME280;27371;42.686;23.362;2023-03-13T12:37:30;164563.88;;;9.08;39.24
41688;BME280;27371;42.686;23.362;2023-03-13T12:40:22;164593.25;;;9.19;39.08
41688;BME280;27371;42.686;23.362;2023-03-13T12:42:56;164606.59;;;9.24;38.53
41688;BME280;27371;42.686;23.362;2023-03-13T12:45:23;164639.94;;;9.37;38.75
41688;BME280;27371;42.686;23.362;2023-03-13T12:50:36;164718.75;;;9.67;38.77
41688;BME280;27371;42.686;23.362;2023-03-13T12:58:54;164800.25;;;9.98;38.52
41688;BME280;27371;42.686;23.362;2023-03-13T13:03:57;164841.63;;;10.14;37.92
41688;BME280;27371;42.686;23.362;2023-03-13T13:06:25;164896.47;;;10.35;37.50
41688;BME280;27371;42.686;23.362;2023-03-13T13:11:34;164996.72;;;10.74;37.13
41688;BME280;27371;42.686;23.362;2023-03-13T13:14:01;165019.44;;;10.82;36.35
41688;BME280;27371;42.686;23.362;2023-03-13T13:16:30;164991.34;;;10.72;36.24
41688;BME280;27371;42.686;23.362;2023-03-13T13:24:53;164741.50;;;9.76;36.72
41688;BME280;27371;42.686;23.362;2023-03-13T13:27:45;164639.94;;;9.37;38.15
41688;BME280;27371;42.686;23.362;2023-03-13T13:32:44;164744.16;;;9.77;37.78
41688;BME280;27371;42.686;23.362;2023-03-13T13:35:31;164754.81;;;9.81;37.67
41688;BME280;27371;42.686;23.362;2023-03-13T13:43:36;164859.03;;;10.21;36.96
41688;BME280;27371;42.686;23.362;2023-03-13T13:46:22;164864.41;;;10.23;36.67
41688;BME280;27371;42.686;23.362;2023-03-13T13:51:30;164980.69;;;10.67;35.99
41688;BME280;27371;42.686;23.362;2023-03-13T13:56:38;165048.81;;;10.93;35.61
41688;BME280;27371;42.686;23.362;2023-03-13T13:59:24;165079.56;;;11.05;35.95
41688;BME280;27371;42.686;23.362;2023-03-13T14:04:35;165071.53;;;11.02;35.18
41688;BME280;27371;42.686;23.362;2023-03-13T14:07:03;165052.84;;;10.95;35.38
41688;BME280;27371;42.686;23.362;2023-03-13T14:12:34;165121.00;;;11.21;35.05
41688;BME280;27371;42.686;23.362;2023-03-13T14:15:15;165121.00;;;11.21;34.68
41688;BME280;27371;42.686;23.362;2023-03-13T14:17:52;165104.97;;;11.15;34.57
41688;BME280;27371;42.686;23.362;2023-03-13T14:22:57;164999.38;;;10.75;35.21
41688;BME280;27371;42.686;23.362;2023-03-13T14:25:25;164957.97;;;10.59;35.60
41688;BME280;27371;42.686;23.362;2023-03-13T14:27:53;165000.75;;;10.75;35.68
41688;BME280;27371;42.686;23.362;2023-03-13T14:30:20;165014.06;;;10.80;35.23
41688;BME280;27371;42.686;23.362;2023-03-13T14:32:46;165003.41;;;10.76;35.26
41688;BME280;27371;42.686;23.362;2023-03-13T14:35:15;164964.66;;;10.61;35.60
41688;BME280;27371;42.686;23.362;2023-03-13T14:40:08;164793.56;;;9.96;36.28
41688;BME280;27371;42.686;23.362;2023-03-13T14:42:44;164800.25;;;9.98;36.57
41688;BME280;27371;42.686;23.362;2023-03-13T14:45:20;164844.34;;;10.15;36.98